Time;durP1;ratioP1;P1;durP2;ratioP2;P2;SDS_P1;SDS_P2;PMS_P1;PMS_P2;Temp;Humidity;BMP_temperature;BMP_pressure;BME280_temperature;BME280_humidity;BME280_pressure;Samples;Min_cycle;Max_cycle;Signal;HPM_P1;HPM_P2
2022/06/02 00:00:49;;;;;;;11.70;9.05;;;;;;;8.92;100.00;101905.44;4954784;28;20058;-77
2022/06/02 00:03:34;;;;;;;10.18;8.48;;;;;;;8.90;100.00;101899.25;4921070;28;20051;-77
2022/06/02 00:06:16;;;;;;;10.90;8.95;;;;;;;8.89;100.00;101892.19;4959937;28;20051;-78
2022/06/02 00:09:01;;;;;;;10.65;9.55;;;;;;;8.88;100.00;101894.78;4912560;28;20039;-78
2022/06/02 00:11:39;;;;;;;11.70;10.23;;;;;;;8.84;100.00;101901.69;4942932;28;20043;-77
2022/06/02 00:14:19;;;;;;;13.23;11.00;;;;;;;8.81;100.00;101896.38;4945881;28;20317;-77
2022/06/02 00:16:47;;;;;;;13.50;10.73;;;;;;;8.79;100.00;101903.31;4960205;28;20057;-79
2022/06/02 00:19:49;;;;;;;12.98;11.40;;;;;;;8.76;100.00;101900.59;4925865;28;20047;-77
2022/06/02 00:22:27;;;;;;;12.13;10.43;;;;;;;8.74;100.00;101915.44;4946011;28;20496;-78
2022/06/02 00:25:06;;;;;;;13.50;11.00;;;;;;;8.71;100.00;101910.97;4940313;28;20507;-78
2022/06/02 00:27:46;;;;;;;12.13;10.15;;;;;;;8.70;100.00;101903.06;4933238;28;20503;-77
2022/06/02 00:30:35;;;;;;;10.90;9.65;;;;;;;8.69;100.00;101911.78;4948773;28;20210;-78
2022/06/02 00:33:36;;;;;;;11.25;9.82;;;;;;;8.66;100.00;101914.31;4907909;28;22121;-78
2022/06/02 00:36:17;;;;;;;12.07;10.85;;;;;;;8.65;100.00;101915.19;4939932;28;20258;-76
2022/06/02 00:38:46;;;;;;;11.38;10.27;;;;;;;8.62;100.00;101912.44;4945857;28;20050;-77
2022/06/02 00:41:23;;;;;;;11.00;9.57;;;;;;;8.61;100.00;101915.94;4916946;28;20055;-77
2022/06/02 00:44:15;;;;;;;11.25;10.00;;;;;;;8.58;100.00;101920.28;4932154;28;20527;-78
2022/06/02 00:47:01;;;;;;;11.95;8.80;;;;;;;8.55;100.00;101920.16;4918446;28;20376;-77
2022/06/02 00:49:39;;;;;;;9.52;8.55;;;;;;;8.53;100.00;101926.25;4920952;28;20069;-77
2022/06/02 00:52:11;;;;;;;12.25;8.98;;;;;;;8.52;100.00;101929.69;4924505;29;20191;-76
2022/06/02 00:57:41;;;;;;;7.32;6.63;;;;;;;8.46;100.00;101919.91;4947216;28;20046;-77
2022/06/02 01:00:09;;;;;;;13.02;10.20;;;;;;;8.44;100.00;101924.22;4953663;28;20277;-78
2022/06/02 01:03:07;;;;;;;12.40;8.70;;;;;;;8.43;100.00;101921.53;4950415;28;20043;-77
2022/06/02 01:06:24;;;;;;;9.00;8.10;;;;;;;8.39;100.00;101925.78;4907977;28;20054;-78
2022/06/02 01:09:15;;;;;;;10.60;8.82;;;;;;;8.37;100.00;101924.84;4939784;28;20048;-77
2022/06/02 01:12:17;;;;;;;9.90;8.90;;;;;;;8.33;100.00;101937.00;4923540;28;20058;-78
2022/06/02 01:15:07;;;;;;;12.70;9.30;;;;;;;8.30;100.00;101928.13;4936670;28;20031;-78
2022/06/02 01:17:47;;;;;;;9.68;8.32;;;;;;;8.27;100.00;101939.44;4933829;28;20123;-78
2022/06/02 01:20:44;;;;;;;10.65;8.45;;;;;;;8.24;100.00;101936.75;4926511;28;20042;-77
2022/06/02 01:23:47;;;;;;;10.82;9.25;;;;;;;8.23;100.00;101947.19;4946912;28;20192;-77
2022/06/02 01:26:55;;;;;;;12.27;9.20;;;;;;;8.19;100.00;101948.84;4936404;28;20235;-77
2022/06/02 01:29:50;;;;;;;11.32;8.68;;;;;;;8.15;100.00;101941.72;4933271;28;20524;-78
2022/06/02 01:32:33;;;;;;;12.68;9.88;;;;;;;8.11;100.00;101942.44;4950730;28;20504;-77
2022/06/02 01:35:20;;;;;;;10.18;9.25;;;;;;;8.07;100.00;101949.34;4916710;28;20039;-78
2022/06/02 01:37:57;;;;;;;9.52;8.52;;;;;;;8.06;100.00;101939.69;4934058;28;20054;-77
2022/06/02 01:40:39;;;;;;;10.00;8.70;;;;;;;8.06;100.00;101952.81;4959435;28;20042;-78
2022/06/02 01:43:17;;;;;;;10.85;8.05;;;;;;;8.05;100.00;101943.13;4935759;28;20523;-78
2022/06/02 01:46:00;;;;;;;9.43;8.52;;;;;;;8.03;100.00;101942.22;4944743;28;20043;-77
2022/06/02 01:48:41;;;;;;;11.30;8.10;;;;;;;8.03;100.00;101944.81;4946629;28;20054;-78
2022/06/02 01:51:55;;;;;;;8.70;7.90;;;;;;;8.03;100.00;101936.06;4921419;28;20034;-78
2022/06/02 01:54:58;;;;;;;8.50;7.43;;;;;;;8.02;100.00;101940.44;4934657;28;20050;-78
2022/06/02 01:57:37;;;;;;;10.48;8.55;;;;;;;8.00;100.00;101944.75;4956538;28;20245;-78
2022/06/02 02:00:05;;;;;;;9.10;8.18;;;;;;;7.98;100.00;101944.69;4946962;28;20057;-77
2022/06/02 02:02:53;;;;;;;10.25;9.15;;;;;;;7.96;100.00;101941.13;4946740;28;20043;-78
2022/06/02 02:05:27;;;;;;;9.63;8.80;;;;;;;7.96;100.00;101946.38;4931531;28;20499;-78
2022/06/02 02:07:58;;;;;;;12.68;9.10;;;;;;;7.93;100.00;101945.41;4959784;28;20043;-78
2022/06/02 02:10:47;;;;;;;11.55;9.52;;;;;;;7.92;100.00;101946.22;4941353;28;20163;-77
2022/06/02 02:13:40;;;;;;;10.05;9.05;;;;;;;7.92;100.00;101940.97;4925526;29;20039;-78
2022/06/02 02:16:33;;;;;;;10.38;9.32;;;;;;;7.90;100.00;101950.53;4952335;28;20051;-77
2022/06/02 02:19:14;;;;;;;11.55;9.55;;;;;;;7.87;100.00;101942.59;4950150;28;20062;-78
2022/06/02 02:21:49;;;;;;;12.00;9.82;;;;;;;7.85;100.00;101944.28;4923660;28;20317;-78
2022/06/02 02:24:44;;;;;;;11.57;10.38;;;;;;;7.81;100.00;101946.78;4965114;28;20053;-77
2022/06/02 02:27:16;;;;;;;12.98;11.43;;;;;;;7.78;100.00;101943.16;4938475;28;20039;-78
2022/06/02 02:30:08;;;;;;;12.27;9.65;;;;;;;7.76;100.00;101944.84;4938775;28;20069;-77
2022/06/02 02:32:46;;;;;;;14.02;10.77;;;;;;;7.74;100.00;101943.91;4928907;28;20174;-77
2022/06/02 02:35:27;;;;;;;13.30;10.95;;;;;;;7.72;100.00;101940.34;4958515;28;20047;-76
2022/06/02 02:38:10;;;;;;;14.48;12.50;;;;;;;7.68;100.00;101942.00;4920482;28;20061;-76
2022/06/02 02:40:51;;;;;;;18.92;12.82;;;;;;;7.66;100.00;101943.69;4951323;28;20039;-77
2022/06/02 02:43:43;;;;;;;12.80;11.45;;;;;;;7.66;100.00;101942.78;4958500;28;20047;-78
2022/06/02 02:46:22;;;;;;;14.45;13.05;;;;;;;7.63;100.00;101940.06;4954891;28;20051;-78
2022/06/02 02:49:08;;;;;;;18.38;13.20;;;;;;;7.59;100.00;101944.31;4949957;28;20036;-77
2022/06/02 02:51:51;;;;;;;19.15;13.25;;;;;;;7.58;100.00;101948.66;4953264;28;20448;-77
2022/06/02 02:54:44;;;;;;;12.60;11.38;;;;;;;7.58;100.00;101947.75;4911617;28;20400;-77
2022/06/02 02:57:37;;;;;;;13.13;11.77;;;;;;;7.56;100.00;101942.50;4943444;28;20146;-78
2022/06/02 03:00:17;;;;;;;12.63;11.40;;;;;;;7.56;100.00;101955.59;4953019;28;20133;-78
2022/06/02 03:03:00;;;;;;;14.25;11.98;;;;;;;7.56;100.00;101941.56;4913541;28;20047;-78
2022/06/02 03:05:59;;;;;;;14.40;12.02;;;;;;;7.56;100.00;101942.50;4974999;28;20503;-78
2022/06/02 03:09:05;;;;;;;13.80;9.82;;;;;;;7.55;100.00;101952.91;4927652;28;20491;-77
2022/06/02 03:11:51;;;;;;;11.52;10.40;;;;;;;7.57;100.00;101948.63;4932290;28;20268;-78
2022/06/02 03:14:51;;;;;;;13.27;10.93;;;;;;;7.58;100.00;101953.00;4956828;28;20377;-77
2022/06/02 03:17:57;;;;;;;11.30;10.00;;;;;;;7.57;100.00;101948.63;4896400;28;20042;-77
2022/06/02 03:20:28;;;;;;;10.80;9.73;;;;;;;7.55;100.00;101956.44;4960288;28;20439;-78
2022/06/02 03:23:20;;;;;;;12.90;9.88;;;;;;;7.57;100.00;101964.34;4940370;28;20050;-77
2022/06/02 03:26:08;;;;;;;12.35;10.98;;;;;;;7.56;100.00;101967.81;4944095;28;20041;-78
2022/06/02 03:29:01;;;;;;;11.00;9.95;;;;;;;7.55;100.00;101966.03;4952932;28;20042;-78
2022/06/02 03:31:44;;;;;;;11.48;10.15;;;;;;;7.55;100.00;101971.28;4910644;28;20535;-77
2022/06/02 03:34:29;;;;;;;10.10;9.10;;;;;;;7.54;100.00;101972.09;4941374;28;20043;-77
2022/06/02 03:37:01;;;;;;;11.98;10.23;;;;;;;7.53;100.00;101965.97;4952775;28;20055;-77
2022/06/02 03:39:35;;;;;;;18.42;10.48;;;;;;;7.53;100.00;101972.97;4931675;28;20174;-77
2022/06/02 03:42:24;;;;;;;12.82;10.35;;;;;;;7.53;100.00;101971.22;4954733;28;20194;-78
2022/06/02 03:45:10;;;;;;;12.43;9.38;;;;;;;7.54;100.00;101979.97;4931211;28;20054;-78
2022/06/02 03:48:00;;;;;;;11.82;9.10;;;;;;;7.54;100.00;101979.97;4921443;28;20050;-78
2022/06/02 03:50:57;;;;;;;12.07;8.70;;;;;;;7.55;100.00;101979.16;4932666;28;20261;-77
2022/06/02 03:53:45;;;;;;;9.68;8.68;;;;;;;7.56;100.00;101984.47;4937502;28;20368;-78
2022/06/02 03:56:40;;;;;;;13.15;9.40;;;;;;;7.61;100.00;101988.09;4916562;28;20054;-77
2022/06/02 03:59:51;;;;;;;10.07;8.77;;;;;;;7.66;100.00;101983.03;4949350;28;20430;-78
2022/06/02 04:02:29;;;;;;;10.57;9.52;;;;;;;7.72;100.00;101982.34;4952514;28;20515;-78
2022/06/02 04:05:36;;;;;;;8.93;8.02;;;;;;;7.80;100.00;101986.09;4943276;28;20051;-77
2022/06/02 04:08:05;;;;;;;9.02;8.23;;;;;;;7.86;100.00;101988.03;4911244;28;20062;-77
2022/06/02 04:10:50;;;;;;;9.80;7.82;;;;;;;7.92;100.00;101990.84;4918519;28;20826;-77
2022/06/02 04:13:46;;;;;;;10.80;7.80;;;;;;;7.99;100.00;102000.72;4948490;28;20395;-78
2022/06/02 04:16:20;;;;;;;9.50;8.40;;;;;;;8.07;100.00;102003.56;4969407;28;20050;-78
2022/06/02 04:23:16;;;;;;;9.60;8.02;;;;;;;8.27;100.00;102007.72;4953136;28;20405;-77
2022/06/02 04:26:11;;;;;;;7.88;7.00;;;;;;;8.33;100.00;102010.53;4855866;28;20056;-78
2022/06/02 04:29:04;;;;;;;10.10;7.00;;;;;;;8.38;100.00;102008.94;4912603;28;20443;-77
2022/06/02 04:31:40;;;;;;;7.55;6.60;;;;;;;8.44;100.00;102010.03;4918306;28;20125;-77
2022/06/02 04:34:29;;;;;;;7.82;6.30;;;;;;;8.50;100.00;102018.09;4948398;28;20062;-78
2022/06/02 04:37:16;;;;;;;7.53;6.65;;;;;;;8.57;100.00;102015.69;4959021;28;20066;-78
2022/06/02 04:40:03;;;;;;;7.55;6.30;;;;;;;8.66;100.00;102016.78;4943474;28;20404;-78
2022/06/02 04:42:59;;;;;;;7.65;5.85;;;;;;;8.81;100.00;102016.34;4933329;28;20403;-78
2022/06/02 04:45:59;;;;;;;6.28;5.65;;;;;;;8.93;100.00;102011.47;4949408;28;20050;-77
2022/06/02 04:49:12;;;;;;;7.63;5.63;;;;;;;9.01;100.00;102014.31;4942490;28;20522;-77
2022/06/02 04:51:59;;;;;;;6.25;5.65;;;;;;;9.06;100.00;102017.97;4928104;28;20058;-77
2022/06/02 04:54:50;;;;;;;7.35;5.72;;;;;;;9.11;100.00;102027.78;4933480;28;20058;-78
2022/06/02 04:57:25;;;;;;;5.97;5.40;;;;;;;9.16;100.00;102020.88;4906443;28;20039;-76
2022/06/02 05:00:26;;;;;;;7.68;5.07;;;;;;;9.19;100.00;102033.25;4940514;28;20481;-77
2022/06/02 05:03:05;;;;;;;8.15;5.30;;;;;;;9.47;100.00;102027.00;4952526;28;20713;-78
2022/06/02 05:05:38;;;;;;;6.22;4.78;;;;;;;10.35;100.00;102031.81;4944695;28;20050;-77
2022/06/02 05:08:14;;;;;;;7.68;5.15;;;;;;;11.45;100.00;102027.94;4936050;28;20274;-78
2022/06/02 05:11:14;;;;;;;4.65;4.22;;;;;;;12.62;100.00;102031.59;4926337;28;20042;-77
2022/06/02 05:14:04;;;;;;;4.43;4.05;;;;;;;13.68;100.00;102027.53;4958255;28;20046;-77
2022/06/02 05:16:43;;;;;;;3.30;3.10;;;;;;;14.49;100.00;102032.56;4951598;28;20045;-78
2022/06/02 05:19:20;;;;;;;3.80;3.15;;;;;;;15.33;100.00;102020.53;4961784;28;20050;-76
2022/06/02 05:22:20;;;;;;;4.88;3.35;;;;;;;16.08;100.00;102027.72;4960504;28;20045;-77
2022/06/02 05:25:05;;;;;;;3.10;2.75;;;;;;;16.76;100.00;102024.00;4945204;28;20039;-78
2022/06/02 05:27:45;;;;;;;4.07;2.95;;;;;;;17.35;100.00;102023.75;4922034;28;20496;-78
2022/06/02 05:30:22;;;;;;;;;;;;;;;17.62;86.65;102024.47;4956074;28;20046;-77
2022/06/02 05:33:14;;;;;;;3.25;2.60;;;;;;;18.11;86.33;102035.66;4963807;28;19929;-76
2022/06/02 05:36:01;;;;;;;2.67;2.40;;;;;;;18.32;89.52;102036.34;4945363;28;20047;-77
2022/06/02 05:39:11;;;;;;;2.72;2.53;;;;;;;18.65;93.21;102043.09;4963599;28;20046;-77
2022/06/02 05:41:45;;;;;;;3.72;2.35;;;;;;;18.98;94.31;102032.94;4923712;28;20394;-77
2022/06/02 05:44:40;;;;;;;3.80;1.98;;;;;;;19.22;90.33;102037.06;4953034;28;20043;-77
2022/06/02 05:47:28;;;;;;;2.10;1.90;;;;;;;19.47;85.91;102040.28;4957889;28;20347;-77
2022/06/02 05:50:30;;;;;;;1.98;1.85;;;;;;;19.22;79.00;102050.41;4947420;28;20173;-77
2022/06/02 05:53:09;;;;;;;3.20;2.40;;;;;;;18.70;80.52;102054.59;4942271;28;20039;-77
2022/06/02 05:55:50;;;;;;;3.60;2.40;;;;;;;18.22;82.19;102048.00;4948832;28;20552;-77
2022/06/02 05:58:33;;;;;;;2.30;2.10;;;;;;;17.90;80.05;102057.16;4904030;28;20408;-76
2022/06/02 06:01:23;;;;;;;4.32;1.70;;;;;;;17.58;80.86;102063.59;4944129;28;20058;-77
2022/06/02 06:04:15;;;;;;;3.45;2.25;;;;;;;17.36;83.01;102068.16;4934194;28;20050;-77
2022/06/02 06:06:51;;;;;;;3.22;1.95;;;;;;;16.91;82.65;102064.81;4908675;28;20358;-77
2022/06/02 06:09:46;;;;;;;3.22;2.08;;;;;;;16.53;83.93;102063.13;4936249;28;21216;-78
2022/06/02 06:12:44;;;;;;;2.58;1.70;;;;;;;16.49;85.38;102069.34;4942450;28;20058;-77
2022/06/02 06:15:43;;;;;;;4.20;2.50;;;;;;;16.66;86.16;102069.31;4927427;28;20062;-77
2022/06/02 06:19:07;;;;;;;3.17;2.10;;;;;;;16.79;83.34;102075.50;4938246;28;20051;-76
2022/06/02 06:21:45;;;;;;;2.40;1.60;;;;;;;16.74;85.32;102073.69;4888233;28;20726;-76
2022/06/02 06:24:25;;;;;;;4.53;2.08;;;;;;;17.21;84.18;102081.56;4927629;28;20055;-78
2022/06/02 06:27:00;;;;;;;3.42;1.88;;;;;;;17.37;83.00;102080.56;4948481;28;20388;-77
2022/06/02 06:30:04;;;;;;;2.25;1.60;;;;;;;17.24;79.99;102070.88;4907521;28;20261;-76
2022/06/02 06:32:38;;;;;;;2.70;2.00;;;;;;;17.00;81.30;102070.09;4904734;29;20075;-76
2022/06/02 06:35:45;;;;;;;2.75;1.85;;;;;;;16.74;80.94;102076.34;4941601;28;20062;-76
2022/06/02 06:38:45;;;;;;;2.38;1.63;;;;;;;16.43;83.01;102074.69;4941230;28;20062;-77
2022/06/02 06:41:30;;;;;;;2.80;1.73;;;;;;;16.16;83.65;102065.81;4944317;28;20047;-77
2022/06/02 06:44:14;;;;;;;2.28;1.73;;;;;;;15.96;84.44;102076.47;4951727;28;20038;-77
2022/06/02 06:46:53;;;;;;;3.67;1.90;;;;;;;15.70;86.33;102071.09;4938475;28;20230;-77
2022/06/02 06:49:33;;;;;;;3.60;1.90;;;;;;;15.51;87.19;102081.69;4947207;28;20404;-76
2022/06/02 06:52:05;;;;;;;4.75;2.35;;;;;;;15.42;87.44;102081.66;4935053;28;20416;-76
2022/06/02 06:55:10;;;;;;;5.00;2.03;;;;;;;15.39;91.68;102089.63;4935001;28;20074;-77
2022/06/02 06:57:47;;;;;;;4.47;1.75;;;;;;;15.34;89.61;102096.69;4927790;28;20056;-77
2022/06/02 07:00:30;;;;;;;5.97;1.88;;;;;;;15.20;89.58;102094.88;4935756;28;20058;-79
2022/06/02 07:03:26;;;;;;;3.97;1.92;;;;;;;15.14;91.22;102097.50;4957263;28;20061;-76
2022/06/02 07:06:03;;;;;;;2.65;2.00;;;;;;;15.09;90.94;102095.72;4945822;28;20047;-76
2022/06/02 07:08:36;;;;;;;6.18;1.90;;;;;;;14.90;91.03;102100.94;4935549;28;20062;-76
2022/06/02 07:12:50;;;;;;;3.38;1.70;;;;;;;14.73;91.95;102107.91;4937304;28;20049;-76
2022/06/02 07:14:44;;;;;;;5.80;1.80;;;;;;;14.57;93.67;102104.25;4958063;28;20054;-77
2022/06/02 07:17:23;;;;;;;2.05;1.60;;;;;;;14.51;92.62;102109.50;4882924;28;20503;-76
2022/06/02 07:20:11;;;;;;;3.88;1.85;;;;;;;14.46;92.79;102108.56;4943919;28;20043;-76
2022/06/02 07:23:05;;;;;;;6.53;1.63;;;;;;;14.39;93.09;102118.25;4941120;28;20051;-77
2022/06/02 07:25:38;;;;;;;5.35;2.03;;;;;;;14.31;93.06;102123.50;4958908;28;20284;-77
2022/06/02 07:28:20;;;;;;;5.47;1.60;;;;;;;14.27;93.06;102124.31;4951812;28;20063;-77
2022/06/02 07:31:08;;;;;;;2.03;1.50;;;;;;;14.25;94.37;102131.38;4902074;28;20562;-77
2022/06/02 07:33:43;;;;;;;2.63;1.55;;;;;;;14.16;93.75;102131.34;4947779;28;20701;-77
2022/06/02 07:36:18;;;;;;;6.43;1.40;;;;;;;14.13;94.25;102137.47;4941843;28;20051;-77
2022/06/02 07:39:36;;;;;;;6.50;1.65;;;;;;;14.16;95.75;102129.56;4950642;28;20047;-77
2022/06/02 07:42:29;;;;;;;3.72;1.70;;;;;;;14.13;95.14;102137.47;4901631;29;20553;-77
2022/06/02 07:45:27;;;;;;;5.07;1.60;;;;;;;14.13;95.27;102141.91;4873492;29;20160;-76
2022/06/02 07:48:45;;;;;;;4.18;1.75;;;;;;;14.08;95.84;102140.94;4955314;28;20058;-77
2022/06/02 07:51:18;;;;;;;4.70;1.70;;;;;;;14.05;95.88;102149.78;4946256;28;20508;-76
2022/06/02 07:53:55;;;;;;;1.50;1.40;;;;;;;14.07;96.18;102152.44;4935528;28;20035;-77
2022/06/02 07:56:24;;;;;;;3.13;1.35;;;;;;;14.11;96.30;102156.91;4929498;28;20046;-77
2022/06/02 07:59:39;;;;;;;2.10;1.55;;;;;;;14.22;97.61;102149.94;4951633;28;20058;-78
2022/06/02 08:02:29;;;;;;;4.78;1.40;;;;;;;14.36;96.61;102150.03;4916669;28;20043;-78
2022/06/02 08:05:26;;;;;;;6.03;1.52;;;;;;;14.40;96.38;102152.75;4964156;28;20062;-79
2022/06/02 08:09:06;;;;;;;2.70;1.30;;;;;;;14.49;96.17;102146.59;4913612;28;20040;-78
2022/06/02 08:12:11;;;;;;;3.47;1.50;;;;;;;14.58;95.32;102156.44;4942180;28;20062;-76
2022/06/02 08:14:50;;;;;;;5.63;1.67;;;;;;;14.50;94.77;102155.44;4957258;28;20047;-77
2022/06/02 08:17:28;;;;;;;1.33;1.23;;;;;;;14.51;94.92;102159.88;4947283;28;20335;-77
2022/06/02 08:20:30;;;;;;;3.92;1.63;;;;;;;14.43;94.38;102166.00;4943648;28;20470;-77
2022/06/02 08:23:11;;;;;;;3.85;1.40;;;;;;;14.40;95.52;102163.34;4930766;28;20086;-77
2022/06/02 08:25:57;;;;;;;5.68;1.67;;;;;;;14.46;96.34;102175.78;4930133;28;20073;-77
2022/06/02 08:28:42;;;;;;;3.65;1.65;;;;;;;14.56;96.10;102180.28;4948955;28;20051;-77
2022/06/02 08:31:34;;;;;;;5.18;1.77;;;;;;;14.65;96.18;102170.63;4922577;28;20519;-76
2022/06/02 08:34:17;;;;;;;4.18;1.63;;;;;;;14.66;95.46;102181.25;4918948;28;20435;-77
2022/06/02 08:37:26;;;;;;;6.07;1.90;;;;;;;14.64;94.22;102185.66;4924411;28;20293;-77
2022/06/02 08:40:38;;;;;;;2.25;1.33;;;;;;;14.59;94.71;102182.06;4928583;28;20404;-77
2022/06/02 08:43:31;;;;;;;3.85;1.35;;;;;;;14.70;95.44;102185.69;4951127;28;20054;-76
2022/06/02 08:46:41;;;;;;;2.40;1.70;;;;;;;14.87;94.86;102184.94;4946250;28;20701;-77
2022/06/02 08:49:57;;;;;;;2.80;1.38;;;;;;;15.10;93.94;102193.03;4945089;28;20051;-78
2022/06/02 08:52:48;;;;;;;4.93;1.30;;;;;;;15.09;94.05;102202.78;4947967;28;20038;-76
2022/06/02 08:55:58;;;;;;;1.73;1.30;;;;;;;15.15;93.51;102207.25;4939155;28;20499;-77
2022/06/02 08:58:43;;;;;;;2.33;1.33;;;;;;;15.12;92.95;102213.44;4912011;28;20055;-77
2022/06/02 09:02:02;;;;;;;2.15;1.63;;;;;;;15.07;91.50;102219.59;4930773;28;20043;-76
2022/06/02 09:04:39;;;;;;;1.25;1.15;;;;;;;15.00;91.46;102234.56;4871382;29;20059;-78
2022/06/02 09:07:38;;;;;;;4.47;1.30;;;;;;;15.01;92.46;102228.41;4923376;28;20573;-77
2022/06/02 09:10:34;;;;;;;3.35;1.83;;;;;;;14.98;92.49;102226.59;4929770;28;20397;-80
2022/06/02 09:13:35;;;;;;;4.07;1.25;;;;;;;15.03;92.21;102229.31;4936972;28;20043;-77
2022/06/02 09:16:34;;;;;;;1.70;1.08;;;;;;;15.16;91.94;102220.53;4950185;28;20423;-78
2022/06/02 09:19:34;;;;;;;3.47;1.38;;;;;;;15.33;91.42;102230.34;4950766;28;20039;-78
2022/06/02 09:22:14;;;;;;;5.07;1.40;;;;;;;15.50;91.83;102231.34;4918092;28;20043;-76
2022/06/02 09:24:43;;;;;;;1.38;1.20;;;;;;;15.58;91.29;102221.63;4922281;28;20404;-77
2022/06/02 09:27:39;;;;;;;2.25;1.05;;;;;;;15.69;90.24;102231.41;4941634;28;20060;-76
2022/06/02 09:30:17;;;;;;;1.33;1.17;;;;;;;15.70;88.87;102234.06;4954365;28;20047;-78
2022/06/02 09:32:51;;;;;;;2.10;1.38;;;;;;;15.72;88.86;102234.97;4942315;28;20046;-77
2022/06/02 09:35:34;;;;;;;1.38;1.25;;;;;;;15.81;88.98;102238.59;4937202;28;20047;-77
2022/06/02 09:38:54;;;;;;;2.65;1.20;;;;;;;15.93;87.55;102226.19;4947898;28;20039;-77
2022/06/02 09:41:34;;;;;;;3.55;1.25;;;;;;;16.01;88.18;102238.63;4949923;28;20039;-77
2022/06/02 09:44:29;;;;;;;2.50;1.10;;;;;;;16.16;89.09;102228.03;4945524;28;20057;-77
2022/06/02 09:47:29;;;;;;;1.15;1.08;;;;;;;16.24;86.15;102233.38;4942657;28;20051;-77
2022/06/02 09:50:18;;;;;;;3.72;1.50;;;;;;;16.32;85.93;102232.50;4944753;28;20595;-76
2022/06/02 09:53:31;;;;;;;4.20;1.48;;;;;;;16.37;83.76;102238.72;4916429;28;20343;-77
2022/06/02 09:56:40;;;;;;;2.03;1.20;;;;;;;16.26;84.06;102228.97;4940588;28;20035;-77
2022/06/02 09:59:41;;;;;;;4.75;1.58;;;;;;;16.18;84.75;102232.50;4939537;28;20054;-77
2022/06/02 10:02:28;;;;;;;4.68;1.25;;;;;;;16.25;86.65;102241.34;4963003;28;20055;-77
2022/06/02 10:05:35;;;;;;;2.90;1.20;;;;;;;16.41;84.98;102236.97;4943552;28;20157;-77
2022/06/02 10:08:23;;;;;;;2.65;1.27;;;;;;;16.49;83.40;102243.16;4894177;28;20567;-78
2022/06/02 10:11:01;;;;;;;2.45;1.38;;;;;;;16.49;85.18;102245.81;4935834;28;20268;-77
2022/06/02 10:13:29;;;;;;;3.67;1.42;;;;;;;16.45;84.74;102248.50;4948037;28;20047;-77
2022/06/02 10:16:27;;;;;;;3.83;1.15;;;;;;;16.41;83.64;102241.38;4938126;28;20047;-77
2022/06/02 10:19:23;;;;;;;4.03;1.13;;;;;;;16.45;85.26;102252.03;4915884;28;20055;-77
2022/06/02 10:22:11;;;;;;;4.28;1.35;;;;;;;16.49;85.73;102247.59;4903314;28;20062;-76
2022/06/02 10:24:45;;;;;;;3.47;1.30;;;;;;;16.49;85.60;102251.16;4912185;28;20388;-77
2022/06/02 10:27:40;;;;;;;2.47;1.38;;;;;;;16.54;83.01;102254.72;4933724;28;20272;-77
2022/06/02 10:30:22;;;;;;;3.65;1.30;;;;;;;16.57;83.64;102253.81;4887956;28;20082;-77
2022/06/02 10:33:09;;;;;;;2.10;1.08;;;;;;;16.64;82.86;102262.69;4944197;28;20066;-76
2022/06/02 10:36:00;;;;;;;3.80;1.30;;;;;;;16.61;84.05;102250.25;4936662;28;20083;-77
2022/06/02 10:38:29;;;;;;;3.03;1.58;;;;;;;16.63;84.21;102250.25;4883696;28;20068;-76
2022/06/02 10:41:17;;;;;;;3.00;1.15;;;;;;;16.84;84.57;102257.41;4932077;28;20058;-76
2022/06/02 10:43:54;;;;;;;4.10;1.60;;;;;;;16.94;83.52;102260.06;4946075;28;20341;-78
2022/06/02 10:47:08;;;;;;;2.33;1.25;;;;;;;16.77;79.87;102260.03;4905301;28;20235;-77
2022/06/02 10:49:59;;;;;;;3.08;1.27;;;;;;;16.65;82.50;102256.47;4929839;28;20054;-76
2022/06/02 10:53:08;;;;;;;3.58;1.20;;;;;;;16.59;82.02;102268.00;4898975;28;20039;-77
2022/06/02 10:55:55;;;;;;;6.30;1.90;;;;;;;16.64;83.55;102262.69;4955802;28;20043;-77
2022/06/02 10:58:23;;;;;;;2.85;1.20;;;;;;;16.66;83.92;102271.56;4926803;28;20042;-81
2022/06/02 11:00:58;;;;;;;2.92;1.40;;;;;;;16.79;83.77;102272.47;4945044;28;20280;-81
2022/06/02 11:04:04;;;;;;;1.33;1.23;;;;;;;16.90;81.30;102262.72;4945607;28;20317;-81
2022/06/02 11:07:30;;;;;;;3.22;1.27;;;;;;;16.89;82.82;102258.28;4946324;28;20047;-81
2022/06/02 11:10:30;;;;;;;1.70;1.40;;;;;;;16.88;81.59;102257.41;4934933;29;20047;-79
2022/06/02 11:13:34;;;;;;;4.00;1.70;;;;;;;16.77;82.76;102256.50;4942863;28;20059;-80
2022/06/02 11:16:38;;;;;;;1.88;1.50;;;;;;;16.65;82.20;102264.47;4970276;28;20027;-81
2022/06/02 11:19:20;;;;;;;5.07;1.08;;;;;;;16.55;83.08;102266.22;4932834;28;20055;-82
2022/06/02 11:22:15;;;;;;;3.95;1.73;;;;;;;16.49;83.01;102267.09;4932308;28;20050;-80
2022/06/02 11:28:50;;;;;;;3.28;1.23;;;;;;;16.97;83.45;102252.97;4934340;28;20042;-80
2022/06/02 11:31:29;;;;;;;4.63;1.75;;;;;;;17.04;83.28;102247.63;4934263;28;20049;-80
2022/06/02 11:34:31;;;;;;;4.03;1.63;;;;;;;16.99;83.00;102249.38;4915141;28;20039;-80
2022/06/02 11:37:21;;;;;;;2.35;1.42;;;;;;;16.94;83.96;102252.06;4917862;28;20066;-80
2022/06/02 11:39:56;;;;;;;3.15;1.70;;;;;;;16.92;83.81;102248.53;4919492;28;20031;-81
2022/06/02 11:42:52;;;;;;;1.60;1.50;;;;;;;16.82;83.34;102249.41;4941984;28;20047;-81
2022/06/02 11:45:33;;;;;;;3.72;1.60;;;;;;;16.74;83.01;102252.03;4952944;28;20054;-81
2022/06/02 11:48:43;;;;;;;2.40;1.35;;;;;;;17.00;82.46;102253.84;4920622;28;20548;-80
2022/06/02 11:51:27;;;;;;;4.20;1.30;;;;;;;17.10;82.50;102247.59;4941512;28;20047;-80
2022/06/02 11:54:38;;;;;;;4.35;1.50;;;;;;;17.12;82.69;102240.50;4915014;28;20051;-80
2022/06/02 11:57:37;;;;;;;2.80;1.58;;;;;;;17.31;80.92;102246.66;4945835;28;20613;-80
2022/06/02 12:00:24;;;;;;;3.53;1.67;;;;;;;17.33;81.64;102242.25;4943795;28;20532;-77
2022/06/02 12:03:20;;;;;;;1.40;1.30;;;;;;;17.55;79.88;102244.84;4942580;28;20066;-77
2022/06/02 12:06:11;;;;;;;3.38;1.40;;;;;;;17.68;79.36;102243.00;4944682;28;20077;-77
2022/06/02 12:09:02;;;;;;;3.22;1.58;;;;;;;17.61;79.91;102236.81;4924514;28;20389;-77
2022/06/02 12:11:47;;;;;;;2.08;1.20;;;;;;;17.55;78.01;102242.16;4932565;28;20062;-78
2022/06/02 12:14:47;;;;;;;1.92;1.27;;;;;;;17.30;79.59;102244.03;4926220;28;20066;-77
2022/06/02 12:17:48;;;;;;;2.42;1.42;;;;;;;17.40;79.89;102239.56;4939891;28;20051;-77
2022/06/02 12:20:41;;;;;;;3.63;1.50;;;;;;;17.68;80.68;102245.69;4898518;28;20050;-77
2022/06/02 12:23:31;;;;;;;2.28;1.42;;;;;;;17.99;79.20;102238.44;4928204;28;20051;-77
2022/06/02 12:26:05;;;;;;;2.50;1.40;;;;;;;17.95;78.11;102249.13;4889776;28;20803;-77
2022/06/02 12:28:58;;;;;;;1.40;1.15;;;;;;;17.94;76.04;102256.25;4935136;28;20066;-77
2022/06/02 12:31:26;;;;;;;2.40;1.30;;;;;;;18.00;77.95;102248.22;4939900;28;20047;-77
2022/06/02 12:34:23;;;;;;;1.67;1.20;;;;;;;17.96;74.93;102240.22;4912565;28;20661;-77
2022/06/02 12:37:34;;;;;;;2.67;1.27;;;;;;;18.03;76.61;102231.31;4933382;28;20067;-77
2022/06/02 12:40:42;;;;;;;2.38;1.17;;;;;;;18.28;76.86;102245.41;4905663;28;20051;-77
2022/06/02 12:43:32;;;;;;;1.35;1.20;;;;;;;18.50;74.52;102249.66;4900812;28;20170;-77
2022/06/02 12:46:19;;;;;;;2.38;1.13;;;;;;;18.51;74.54;102245.22;4917645;28;20260;-77
2022/06/02 12:49:09;;;;;;;4.00;1.27;;;;;;;18.24;73.90;102251.63;4936262;28;20046;-77
2022/06/02 12:52:09;;;;;;;2.05;1.20;;;;;;;18.16;74.72;102243.66;4924111;28;20039;-78
2022/06/02 12:55:03;;;;;;;2.55;1.17;;;;;;;18.14;73.85;102245.47;4944733;28;20251;-77
2022/06/02 12:57:49;;;;;;;1.35;1.20;;;;;;;18.05;74.87;102242.84;4891264;28;20550;-77
2022/06/02 13:00:33;;;;;;;3.10;1.38;;;;;;;18.12;72.79;102241.91;4935268;28;20077;-77
2022/06/02 13:03:42;;;;;;;3.17;1.20;;;;;;;18.19;74.25;102241.00;4943699;28;20051;-77
2022/06/02 13:06:23;;;;;;;1.27;1.08;;;;;;;18.40;74.61;102236.41;4913234;28;20051;-76
2022/06/02 13:09:30;;;;;;;1.08;0.98;;;;;;;18.56;72.62;102242.50;4945127;28;20359;-77
2022/06/02 13:12:19;;;;;;;4.75;1.38;;;;;;;18.66;72.55;102241.56;4927870;28;20071;-77
2022/06/02 13:15:42;;;;;;;4.20;1.30;;;;;;;18.57;70.97;102241.63;4930900;28;20047;-76